createdAt,value
2023-04-01T00:01:06.721Z,28.79
2023-04-01T00:05:06.914Z,28.72
2023-04-01T00:09:07.067Z,28.71
2023-04-01T00:13:07.270Z,28.72
2023-04-01T00:17:07.479Z,28.68
2023-04-01T00:21:07.905Z,28.69
2023-04-01T00:25:07.900Z,28.66
2023-04-01T00:29:08.000Z,28.59
2023-04-01T00:33:09.010Z,28.59
2023-04-01T00:37:08.405Z,28.61
2023-04-01T00:41:08.592Z,28.56
2023-04-01T00:45:08.905Z,28.56
2023-04-01T00:49:09.015Z,28.54
2023-04-01T00:53:09.166Z,28.52
2023-04-01T00:57:09.502Z,28.47
2023-04-01T01:01:09.681Z,28.45
2023-04-01T01:05:09.729Z,28.45
2023-04-01T01:09:09.862Z,28.47
2023-04-01T01:13:10.435Z,28.40
2023-04-01T01:17:10.273Z,28.38
2023-04-01T01:21:10.920Z,28.40
2023-04-01T01:25:10.960Z,28.27
2023-04-01T01:29:10.832Z,28.32
2023-04-01T01:33:11.448Z,28.31
2023-04-01T01:37:11.448Z,28.27
2023-04-01T01:41:11.433Z,28.23
2023-04-01T01:45:11.930Z,28.16
2023-04-01T01:49:11.746Z,28.12
2023-04-01T01:53:12.425Z,28.14
2023-04-01T01:57:12.481Z,28.17
2023-04-01T02:01:12.414Z,28.07
2023-04-01T02:05:12.973Z,28.07
2023-04-01T02:09:12.777Z,28.06
2023-04-01T02:13:13.020Z,28.04
2023-04-01T02:17:13.456Z,28.02
2023-04-01T02:21:13.444Z,28.02
2023-04-01T02:25:13.969Z,27.95
2023-04-01T02:29:13.781Z,27.91
2023-04-01T02:33:14.451Z,27.88
2023-04-01T02:37:14.466Z,27.84
2023-04-01T02:41:14.453Z,27.85
2023-04-01T02:45:14.960Z,27.92
2023-04-01T02:49:14.735Z,27.88
2023-04-01T02:53:14.986Z,27.87
2023-04-01T02:57:15.536Z,27.78
2023-04-01T03:01:15.217Z,27.79
2023-04-01T03:05:15.284Z,27.80
2023-04-01T03:09:15.497Z,27.76
2023-04-01T03:13:15.504Z,27.76
2023-04-01T03:17:15.973Z,27.72
2023-04-01T03:21:15.963Z,27.83
2023-04-01T03:25:15.684Z,27.76
2023-04-01T03:29:15.968Z,27.75
2023-04-01T03:33:15.795Z,27.69
2023-04-01T03:37:15.980Z,27.72
2023-04-01T03:41:15.993Z,27.68
2023-04-01T03:45:15.907Z,27.72
2023-04-01T03:49:16.502Z,27.75
2023-04-01T03:53:16.450Z,27.70
2023-04-01T03:57:16.216Z,27.66
2023-04-01T04:01:16.274Z,27.69
2023-04-01T04:05:17.552Z,27.65
2023-04-01T04:09:16.497Z,27.59
2023-04-01T04:13:16.417Z,27.65
2023-04-01T04:17:17.020Z,27.62
2023-04-01T04:21:16.610Z,27.55
2023-04-01T04:25:16.983Z,27.63
2023-04-01T04:29:16.989Z,27.59
2023-04-01T04:33:16.735Z,27.66
2023-04-01T04:37:16.993Z,27.59
2023-04-01T04:41:16.816Z,27.63
2023-04-01T04:45:16.861Z,27.56
2023-04-01T04:49:17.004Z,27.60
2023-04-01T04:53:16.956Z,27.63
2023-04-01T04:57:17.539Z,27.59
2023-04-01T05:01:17.093Z,27.57
2023-04-01T05:05:17.528Z,27.53
2023-04-01T05:09:17.524Z,27.51
2023-04-01T05:13:17.187Z,27.59
2023-04-01T05:17:17.506Z,27.49
2023-04-01T05:21:17.310Z,27.57
2023-04-01T05:25:17.527Z,27.59
2023-04-01T05:29:17.415Z,27.53
2023-04-01T05:33:18.018Z,27.53
2023-04-01T05:37:17.512Z,27.55
2023-04-01T05:41:17.605Z,27.47
2023-04-01T05:45:18.007Z,27.47
2023-04-01T05:49:17.738Z,27.49
2023-04-01T05:53:18.010Z,27.52
2023-04-01T05:57:17.916Z,27.56
2023-04-01T06:01:17.951Z,27.57
2023-04-01T06:05:18.529Z,27.52
2023-04-01T06:09:18.108Z,27.49
2023-04-01T06:13:18.502Z,27.54
2023-04-01T06:17:18.238Z,27.52
2023-04-01T06:21:18.352Z,27.54
2023-04-01T06:25:18.590Z,27.50
2023-04-01T06:29:18.559Z,27.51
2023-04-01T06:33:19.031Z,27.53
2023-04-01T06:37:18.581Z,27.57
2023-04-01T06:41:18.668Z,27.53
2023-04-01T06:45:19.043Z,27.54
2023-04-01T06:49:18.830Z,27.49
2023-04-01T06:53:19.049Z,27.53
2023-04-01T06:57:19.304Z,27.47
2023-04-01T07:01:19.191Z,27.54
2023-04-01T07:05:19.531Z,27.48
2023-04-01T07:09:19.343Z,27.49
2023-04-01T07:13:19.566Z,27.47
2023-04-01T07:17:19.572Z,27.47
2023-04-01T07:21:19.558Z,27.47
2023-04-01T07:25:20.045Z,27.48
2023-04-01T07:29:19.708Z,27.42
2023-04-01T07:33:20.120Z,27.53
2023-04-01T07:37:19.843Z,27.46
2023-04-01T07:41:20.050Z,27.49
2023-04-01T07:45:20.069Z,27.47
2023-04-01T07:49:20.544Z,27.51
2023-04-01T07:53:20.171Z,27.53
2023-04-01T07:57:20.643Z,27.54
2023-04-01T08:01:20.365Z,27.49
2023-04-01T08:05:20.550Z,27.47
2023-04-01T08:09:20.555Z,27.51
2023-04-01T08:13:20.581Z,27.58
2023-04-01T08:17:21.103Z,27.55
2023-04-01T08:21:21.068Z,27.55
2023-04-01T08:25:21.064Z,27.54
2023-04-01T08:29:20.897Z,27.59
2023-04-01T08:33:20.963Z,27.55
2023-04-01T08:37:21.056Z,27.55
2023-04-01T08:41:21.603Z,27.54
2023-04-01T08:45:21.581Z,27.58
2023-04-01T08:49:21.261Z,27.58
2023-04-01T08:53:21.333Z,27.57
2023-04-01T08:57:21.599Z,27.51
2023-04-01T09:01:21.474Z,27.54
2023-04-01T09:05:21.604Z,27.55
2023-04-01T09:09:21.548Z,27.55
2023-04-01T09:13:21.599Z,27.52
2023-04-01T09:17:22.109Z,27.43
2023-04-01T09:21:22.103Z,27.56
2023-04-01T09:25:22.143Z,27.57
2023-04-01T09:29:21.895Z,27.52
2023-04-01T09:33:21.984Z,27.54
2023-04-01T09:37:22.103Z,27.52
2023-04-01T09:41:22.082Z,27.50
2023-04-01T09:45:22.119Z,27.52
2023-04-01T09:49:22.127Z,27.57
2023-04-01T09:53:22.610Z,27.49
2023-04-01T09:57:22.690Z,27.49
2023-04-01T10:01:22.266Z,27.53
2023-04-01T10:05:22.668Z,27.46
2023-04-01T10:09:22.341Z,27.47
2023-04-01T10:13:22.611Z,27.43
2023-04-01T10:17:22.719Z,27.44
2023-04-01T10:21:22.630Z,27.46
2023-04-01T10:25:22.629Z,27.38
2023-04-01T10:29:22.611Z,27.31
2023-04-01T10:33:22.687Z,27.20
2023-04-01T10:37:23.134Z,27.23
2023-04-01T10:41:23.130Z,27.27
2023-04-01T10:45:23.110Z,27.13
2023-04-01T10:49:22.856Z,27.26
2023-04-01T10:53:22.930Z,27.26
2023-04-01T10:57:23.166Z,27.18
2023-04-01T11:01:23.121Z,27.13
2023-04-01T11:05:23.614Z,27.16
2023-04-01T11:09:23.148Z,27.11
2023-04-01T11:13:23.682Z,27.09
2023-04-01T11:17:23.714Z,27.08
2023-04-01T11:21:26.097Z,27.04
2023-04-01T11:25:23.243Z,26.97
2023-04-01T11:29:23.649Z,27.01
2023-04-01T11:33:23.654Z,27.05
2023-04-01T11:37:23.631Z,26.99
2023-04-01T11:41:23.153Z,27.01
2023-04-01T11:45:23.091Z,27.01
2023-04-01T11:49:23.075Z,27.01
2023-04-01T11:53:23.132Z,26.84
2023-04-01T11:57:23.048Z,26.88
2023-04-01T12:01:22.957Z,26.90
2023-04-01T12:05:22.900Z,26.88
2023-04-01T12:09:22.864Z,26.86
2023-04-01T12:13:23.262Z,26.88
2023-04-01T12:17:23.158Z,26.77
2023-04-01T12:21:22.738Z,26.95
2023-04-01T12:25:22.760Z,26.83
2023-04-01T12:29:22.694Z,26.84
2023-04-01T12:33:22.654Z,26.81
2023-04-01T12:37:22.628Z,26.83
2023-04-01T12:41:22.701Z,26.84
2023-04-01T12:45:22.544Z,26.77
2023-04-01T12:49:22.521Z,26.79
2023-04-01T12:53:22.702Z,26.74
2023-04-01T12:57:22.546Z,26.63
2023-04-01T13:01:30.253Z,26.70
2023-04-01T13:05:22.478Z,26.65
2023-04-01T13:09:22.478Z,26.66
2023-04-01T13:13:22.710Z,26.69
2023-04-01T13:17:22.714Z,26.65
2023-04-01T13:21:22.367Z,26.59
2023-04-01T13:25:22.336Z,26.59
2023-04-01T13:29:22.682Z,26.63
2023-04-01T13:33:22.823Z,26.58
2023-04-01T13:37:22.727Z,26.51
2023-04-01T13:41:22.502Z,26.54
2023-04-01T13:45:22.706Z,26.55
2023-04-01T13:49:22.693Z,26.56
2023-04-01T13:53:22.701Z,26.36
2023-04-01T13:57:23.403Z,26.41
2023-04-01T14:01:22.867Z,26.33
2023-04-01T14:05:29.366Z,26.33
2023-04-01T14:09:24.207Z,26.16
2023-04-01T14:13:23.209Z,26.23
2023-04-01T14:17:23.196Z,26.28
2023-04-01T14:21:22.692Z,26.25
2023-04-01T14:25:23.219Z,26.22
2023-04-01T14:29:23.208Z,26.30
2023-04-01T14:33:23.196Z,26.26
2023-04-01T14:37:22.966Z,26.22
2023-04-01T14:41:23.063Z,26.30
2023-04-01T14:45:23.223Z,26.30
2023-04-01T14:49:23.730Z,26.11
2023-04-01T14:53:23.326Z,26.25
2023-04-01T14:57:23.493Z,26.20
2023-04-01T15:01:23.820Z,26.18
2023-04-01T15:05:23.720Z,26.15
2023-04-01T15:09:23.731Z,26.11
2023-04-01T15:13:24.235Z,26.12
2023-04-01T15:17:23.914Z,26.09
2023-04-01T15:21:24.034Z,26.15
2023-04-01T15:25:24.242Z,26.14
2023-04-01T15:29:24.272Z,26.08
2023-04-01T15:33:24.754Z,26.08
2023-04-01T15:37:24.363Z,26.07
2023-04-01T15:41:24.478Z,26.07
2023-04-01T15:45:24.759Z,26.09
2023-04-01T15:49:24.772Z,26.16
2023-04-01T15:53:25.250Z,26.02
2023-04-01T15:57:24.942Z,26.03
2023-04-01T16:01:25.076Z,26.08
2023-04-01T16:05:25.244Z,26.05
2023-04-01T16:09:25.287Z,26.13
2023-04-01T16:13:25.394Z,26.02
2023-04-01T16:17:25.433Z,25.94
2023-04-01T16:21:25.562Z,26.02
2023-04-01T16:25:25.757Z,26.02
2023-04-01T16:29:25.862Z,25.95
2023-04-01T16:33:25.846Z,26.01
2023-04-01T16:37:26.288Z,26.01
2023-04-01T16:41:26.033Z,26.05
2023-04-01T16:45:26.284Z,26.07
2023-04-01T16:49:26.777Z,26.03
2023-04-01T16:53:26.386Z,25.99
2023-04-01T16:57:26.890Z,26.07
2023-04-01T17:01:26.685Z,26.01
2023-04-01T17:05:26.755Z,25.95
2023-04-01T17:09:26.863Z,26.06
2023-04-01T17:13:27.003Z,26.03
2023-04-01T17:17:27.104Z,26.03
2023-04-01T17:21:27.284Z,26.07
2023-04-01T17:25:27.824Z,25.96
2023-04-01T17:29:27.784Z,25.96
2023-04-01T17:33:27.616Z,25.99
2023-04-01T17:37:27.781Z,26.07
2023-04-01T17:41:27.918Z,26.02
2023-04-01T17:45:28.291Z,26.06
2023-04-01T17:49:28.171Z,26.04
2023-04-01T17:53:28.328Z,26.04
2023-04-01T17:57:28.922Z,26.01
2023-04-01T18:01:28.616Z,26.10
2023-04-01T18:05:28.807Z,26.18
2023-04-01T18:09:28.830Z,26.04
2023-04-01T18:13:29.277Z,26.11
2023-04-01T18:17:29.393Z,26.10
2023-04-01T18:21:29.309Z,26.08
2023-04-01T18:25:29.397Z,26.11
2023-04-01T18:29:29.563Z,26.06
2023-04-01T18:33:29.848Z,26.07
2023-04-01T18:37:29.908Z,26.09
2023-04-01T18:41:30.318Z,26.11
2023-04-01T18:45:30.354Z,26.09
2023-04-01T18:49:30.376Z,26.09
2023-04-01T18:53:30.824Z,26.13
2023-04-01T18:57:30.751Z,26.06
2023-04-01T19:01:30.877Z,26.09
2023-04-01T19:05:31.807Z,26.15
2023-04-01T19:09:31.271Z,26.09
2023-04-01T19:13:31.800Z,26.09
2023-04-01T19:17:32.100Z,26.19
2023-04-01T19:21:31.792Z,26.13
2023-04-01T19:25:31.870Z,26.23
2023-04-01T19:29:32.039Z,26.19
2023-04-01T19:33:32.322Z,26.19
2023-04-01T19:37:32.846Z,26.17
2023-04-01T19:41:32.618Z,26.19
2023-04-01T19:45:32.826Z,26.24
2023-04-01T19:49:33.350Z,26.17
2023-04-01T19:53:33.325Z,26.22
2023-04-01T19:57:33.335Z,26.28
2023-04-01T20:01:44.072Z,26.23
2023-04-01T20:05:34.633Z,26.21
2023-04-01T20:09:33.857Z,26.19
2023-04-01T20:13:33.865Z,26.13
2023-04-01T20:17:33.893Z,26.18
2023-04-01T20:21:33.843Z,26.21
2023-04-01T20:25:34.182Z,26.17
2023-04-01T20:29:34.348Z,26.17
2023-04-01T20:33:34.345Z,26.21
2023-04-01T20:37:34.835Z,26.20
2023-04-01T20:41:34.856Z,26.16
2023-04-01T20:45:35.058Z,26.17
2023-04-01T20:49:35.347Z,26.22
2023-04-01T20:53:35.386Z,26.23
2023-04-01T20:57:35.931Z,26.24
2023-04-01T21:01:35.571Z,26.18
2023-04-01T21:05:36.079Z,26.26
2023-04-01T21:09:35.957Z,26.21
2023-04-01T21:13:36.383Z,26.21
2023-04-01T21:17:36.392Z,26.28
2023-04-01T21:21:36.534Z,26.19
2023-04-01T21:25:37.163Z,26.18
2023-04-01T21:29:37.364Z,26.26
2023-04-01T21:33:37.124Z,26.22
2023-04-01T21:37:37.368Z,26.19
2023-04-01T21:41:37.541Z,26.14
2023-04-01T21:45:37.848Z,26.23
2023-04-01T21:49:38.392Z,26.19
2023-04-01T21:53:38.220Z,26.15
2023-04-01T21:57:39.033Z,26.21
2023-04-01T22:01:38.667Z,26.19
2023-04-01T22:05:38.902Z,26.18
2023-04-01T22:09:39.032Z,26.18
2023-04-01T22:13:39.857Z,26.15
2023-04-01T22:17:39.468Z,26.16
2023-04-01T22:21:39.601Z,26.14
2023-04-01T22:25:39.868Z,26.15
2023-04-01T22:29:43.069Z,26.15
2023-04-01T22:33:40.403Z,26.09
2023-04-01T22:37:40.397Z,26.09
2023-04-01T22:41:39.947Z,26.12
2023-04-01T22:45:40.418Z,26.09
2023-04-01T22:49:39.895Z,26.11
2023-04-01T22:53:39.861Z,26.12
2023-04-01T22:57:39.893Z,26.05
2023-04-01T23:01:40.385Z,26.05
2023-04-01T23:05:39.728Z,26.05
2023-04-01T23:09:39.907Z,26.08
2023-04-01T23:13:39.719Z,26.08
2023-04-01T23:17:41.929Z,26.02
2023-04-01T23:21:40.396Z,26.09
2023-04-01T23:25:40.875Z,26.08
2023-04-01T23:29:40.394Z,26.14
2023-04-01T23:33:41.920Z,26.06
2023-04-01T23:37:40.341Z,26.05
2023-04-01T23:41:40.916Z,26.11
2023-04-01T23:45:40.897Z,26.12
2023-04-01T23:49:40.591Z,26.06
2023-04-01T23:53:40.936Z,26.07
2023-04-01T23:57:40.746Z,26.12
